sensor_id;sensor_type;location;lat;lon;timestamp;temperature;humidity
46438;DHT22;32137;48.728;9.142;2023-05-08T00:00:39;15.30;99.90
46438;DHT22;32137;48.728;9.142;2023-05-08T00:03:05;15.70;99.90
46438;DHT22;32137;48.728;9.142;2023-05-08T00:05:30;15.40;99.90
46438;DHT22;32137;48.728;9.142;2023-05-08T00:07:56;15.80;99.90
46438;DHT22;32137;48.728;9.142;2023-05-08T00:10:26;15.30;99.90
46438;DHT22;32137;48.728;9.142;2023-05-08T00:12:52;15.50;99.90
46438;DHT22;32137;48.728;9.142;2023-05-08T00:15:18;15.30;99.90
46438;DHT22;32137;48.728;9.142;2023-05-08T00:17:43;15.80;99.90
46438;DHT22;32137;48.728;9.142;2023-05-08T00:20:09;15.50;99.90
46438;DHT22;32137;48.728;9.142;2023-05-08T00:22:36;15.80;99.90
46438;DHT22;32137;48.728;9.142;2023-05-08T00:25:01;15.30;99.90
46438;DHT22;32137;48.728;9.142;2023-05-08T00:27:28;15.40;99.90
46438;DHT22;32137;48.728;9.142;2023-05-08T00:29:54;15.70;99.90
46438;DHT22;32137;48.728;9.142;2023-05-08T00:32:19;15.30;99.90
46438;DHT22;32137;48.728;9.142;2023-05-08T00:34:45;15.50;99.90
46438;DHT22;32137;48.728;9.142;2023-05-08T00:37:10;15.20;99.90
46438;DHT22;32137;48.728;9.142;2023-05-08T00:39:36;15.80;99.90
46438;DHT22;32137;48.728;9.142;2023-05-08T00:42:02;15.60;99.90
46438;DHT22;32137;48.728;9.142;2023-05-08T00:44:27;15.80;99.90
46438;DHT22;32137;48.728;9.142;2023-05-08T00:46:53;15.80;99.90
46438;DHT22;32137;48.728;9.142;2023-05-08T00:49:19;15.70;99.90
46438;DHT22;32137;48.728;9.142;2023-05-08T00:51:46;15.30;99.90
46438;DHT22;32137;48.728;9.142;2023-05-08T00:54:13;15.20;99.90
46438;DHT22;32137;48.728;9.142;2023-05-08T00:56:39;15.30;99.90
46438;DHT22;32137;48.728;9.142;2023-05-08T00:59:08;15.70;99.90
46438;DHT22;32137;48.728;9.142;2023-05-08T01:01:35;15.70;99.90
46438;DHT22;32137;48.728;9.142;2023-05-08T01:04:02;15.20;99.90
46438;DHT22;32137;48.728;9.142;2023-05-08T01:06:28;15.20;99.90
46438;DHT22;32137;48.728;9.142;2023-05-08T01:08:54;15.20;99.90
46438;DHT22;32137;48.728;9.142;2023-05-08T01:11:28;15.80;99.90
46438;DHT22;32137;48.728;9.142;2023-05-08T01:16:57;15.20;99.90
46438;DHT22;32137;48.728;9.142;2023-05-08T01:20:01;15.40;99.90
46438;DHT22;32137;48.728;9.142;2023-05-08T01:33:49;15.20;99.90
46438;DHT22;32137;48.728;9.142;2023-05-08T01:41:40;15.70;99.90
46438;DHT22;32137;48.728;9.142;2023-05-08T01:44:19;15.20;99.90
46438;DHT22;32137;48.728;9.142;2023-05-08T01:46:49;15.70;99.90
46438;DHT22;32137;48.728;9.142;2023-05-08T01:49:33;15.50;99.90
46438;DHT22;32137;48.728;9.142;2023-05-08T01:52:07;15.70;99.90
46438;DHT22;32137;48.728;9.142;2023-05-08T01:54:42;15.40;99.90
46438;DHT22;32137;48.728;9.142;2023-05-08T01:57:09;15.60;99.90
46438;DHT22;32137;48.728;9.142;2023-05-08T01:59:37;15.60;99.90
46438;DHT22;32137;48.728;9.142;2023-05-08T02:02:04;15.20;99.90
46438;DHT22;32137;48.728;9.142;2023-05-08T02:04:32;15.10;99.90
46438;DHT22;32137;48.728;9.142;2023-05-08T02:06:59;15.20;99.90
46438;DHT22;32137;48.728;9.142;2023-05-08T02:09:27;15.70;99.90
46438;DHT22;32137;48.728;9.142;2023-05-08T02:11:54;15.50;99.90
46438;DHT22;32137;48.728;9.142;2023-05-08T02:14:21;15.60;99.90
46438;DHT22;32137;48.728;9.142;2023-05-08T02:16:48;15.20;99.90
46438;DHT22;32137;48.728;9.142;2023-05-08T02:19:15;15.60;99.90
46438;DHT22;32137;48.728;9.142;2023-05-08T02:21:43;15.10;99.90
46438;DHT22;32137;48.728;9.142;2023-05-08T02:24:10;15.20;99.90
46438;DHT22;32137;48.728;9.142;2023-05-08T02:26:38;15.60;99.90
46438;DHT22;32137;48.728;9.142;2023-05-08T02:29:06;15.10;99.90
46438;DHT22;32137;48.728;9.142;2023-05-08T02:31:32;15.40;99.90
46438;DHT22;32137;48.728;9.142;2023-05-08T02:33:59;15.40;99.90
46438;DHT22;32137;48.728;9.142;2023-05-08T02:36:25;15.10;99.90
46438;DHT22;32137;48.728;9.142;2023-05-08T02:38:55;15.20;99.90
46438;DHT22;32137;48.728;9.142;2023-05-08T02:41:27;15.50;99.90
46438;DHT22;32137;48.728;9.142;2023-05-08T02:43:53;15.10;99.90
46438;DHT22;32137;48.728;9.142;2023-05-08T02:46:24;15.10;99.90
46438;DHT22;32137;48.728;9.142;2023-05-08T02:49:02;15.60;99.90
46438;DHT22;32137;48.728;9.142;2023-05-08T02:52:04;15.50;99.90
46438;DHT22;32137;48.728;9.142;2023-05-08T02:54:37;15.30;99.90
46438;DHT22;32137;48.728;9.142;2023-05-08T02:57:20;15.60;99.90
46438;DHT22;32137;48.728;9.142;2023-05-08T03:00:07;15.40;99.90
46438;DHT22;32137;48.728;9.142;2023-05-08T03:02:43;15.60;99.90
46438;DHT22;32137;48.728;9.142;2023-05-08T03:05:18;15.10;99.90
46438;DHT22;32137;48.728;9.142;2023-05-08T03:07:46;15.20;99.90
46438;DHT22;32137;48.728;9.142;2023-05-08T03:10:14;15.50;99.90
46438;DHT22;32137;48.728;9.142;2023-05-08T03:12:46;15.20;99.90
46438;DHT22;32137;48.728;9.142;2023-05-08T03:15:26;15.10;99.90
46438;DHT22;32137;48.728;9.142;2023-05-08T03:17:55;15.20;99.90
46438;DHT22;32137;48.728;9.142;2023-05-08T03:20:21;15.10;99.90
46438;DHT22;32137;48.728;9.142;2023-05-08T03:22:50;15.20;99.90
46438;DHT22;32137;48.728;9.142;2023-05-08T03:25:17;15.10;99.90
46438;DHT22;32137;48.728;9.142;2023-05-08T03:27:45;15.60;99.90
46438;DHT22;32137;48.728;9.142;2023-05-08T03:30:11;15.60;99.90
46438;DHT22;32137;48.728;9.142;2023-05-08T03:32:38;15.00;99.90
46438;DHT22;32137;48.728;9.142;2023-05-08T03:35:04;15.60;99.90
46438;DHT22;32137;48.728;9.142;2023-05-08T03:37:30;15.50;99.90
46438;DHT22;32137;48.728;9.142;2023-05-08T03:39:56;15.10;99.90
46438;DHT22;32137;48.728;9.142;2023-05-08T03:42:23;15.60;99.90
46438;DHT22;32137;48.728;9.142;2023-05-08T03:44:50;15.50;99.90
46438;DHT22;32137;48.728;9.142;2023-05-08T03:47:17;15.00;99.90
46438;DHT22;32137;48.728;9.142;2023-05-08T03:49:45;15.00;99.90
46438;DHT22;32137;48.728;9.142;2023-05-08T03:52:14;15.30;99.90
46438;DHT22;32137;48.728;9.142;2023-05-08T03:54:41;15.50;99.90
46438;DHT22;32137;48.728;9.142;2023-05-08T03:57:07;15.00;99.90
46438;DHT22;32137;48.728;9.142;2023-05-08T03:59:44;15.50;99.90
46438;DHT22;32137;48.728;9.142;2023-05-08T04:04:54;15.40;99.90
46438;DHT22;32137;48.728;9.142;2023-05-08T04:07:31;14.90;99.90
46438;DHT22;32137;48.728;9.142;2023-05-08T04:10:11;14.90;99.90
46438;DHT22;32137;48.728;9.142;2023-05-08T04:13:02;15.30;99.90
46438;DHT22;32137;48.728;9.142;2023-05-08T04:15:28;14.90;99.90
46438;DHT22;32137;48.728;9.142;2023-05-08T04:18:13;15.40;99.90
46438;DHT22;32137;48.728;9.142;2023-05-08T04:20:41;14.90;99.90
46438;DHT22;32137;48.728;9.142;2023-05-08T04:23:08;15.50;99.90
46438;DHT22;32137;48.728;9.142;2023-05-08T04:25:38;15.40;99.90
46438;DHT22;32137;48.728;9.142;2023-05-08T04:28:05;15.20;99.90
46438;DHT22;32137;48.728;9.142;2023-05-08T04:30:32;14.90;99.90
46438;DHT22;32137;48.728;9.142;2023-05-08T04:32:58;15.40;99.90
46438;DHT22;32137;48.728;9.142;2023-05-08T04:35:24;15.30;99.90
46438;DHT22;32137;48.728;9.142;2023-05-08T04:37:50;14.90;99.90
46438;DHT22;32137;48.728;9.142;2023-05-08T04:40:15;15.50;99.90
46438;DHT22;32137;48.728;9.142;2023-05-08T04:42:41;15.00;99.90
46438;DHT22;32137;48.728;9.142;2023-05-08T04:45:08;15.10;99.90
46438;DHT22;32137;48.728;9.142;2023-05-08T04:47:34;15.30;99.90
46438;DHT22;32137;48.728;9.142;2023-05-08T04:50:00;15.00;99.90
46438;DHT22;32137;48.728;9.142;2023-05-08T04:52:25;15.30;99.90
46438;DHT22;32137;48.728;9.142;2023-05-08T04:54:51;15.00;99.90
46438;DHT22;32137;48.728;9.142;2023-05-08T04:57:16;15.50;99.90
46438;DHT22;32137;48.728;9.142;2023-05-08T04:59:42;15.00;99.90
46438;DHT22;32137;48.728;9.142;2023-05-08T05:02:07;15.00;99.90
46438;DHT22;32137;48.728;9.142;2023-05-08T05:04:34;15.00;99.90
46438;DHT22;32137;48.728;9.142;2023-05-08T05:07:01;15.00;99.90
46438;DHT22;32137;48.728;9.142;2023-05-08T05:09:27;15.60;99.90
46438;DHT22;32137;48.728;9.142;2023-05-08T05:11:52;15.10;99.90
46438;DHT22;32137;48.728;9.142;2023-05-08T05:14:18;15.50;99.90
46438;DHT22;32137;48.728;9.142;2023-05-08T05:16:43;15.10;99.90
46438;DHT22;32137;48.728;9.142;2023-05-08T05:19:09;15.10;99.90
46438;DHT22;32137;48.728;9.142;2023-05-08T05:21:34;15.20;99.90
46438;DHT22;32137;48.728;9.142;2023-05-08T05:24:02;15.10;99.90
46438;DHT22;32137;48.728;9.142;2023-05-08T05:26:28;15.00;99.90
46438;DHT22;32137;48.728;9.142;2023-05-08T05:28:53;15.70;99.90
46438;DHT22;32137;48.728;9.142;2023-05-08T05:31:19;15.50;99.90
46438;DHT22;32137;48.728;9.142;2023-05-08T05:33:44;15.40;99.90
46438;DHT22;32137;48.728;9.142;2023-05-08T05:36:11;15.60;99.90
46438;DHT22;32137;48.728;9.142;2023-05-08T05:38:36;15.40;99.90
46438;DHT22;32137;48.728;9.142;2023-05-08T05:41:02;15.10;99.90
46438;DHT22;32137;48.728;9.142;2023-05-08T05:43:27;15.20;99.90
46438;DHT22;32137;48.728;9.142;2023-05-08T05:45:53;15.70;99.90
46438;DHT22;32137;48.728;9.142;2023-05-08T05:48:20;15.20;99.90
46438;DHT22;32137;48.728;9.142;2023-05-08T05:50:46;15.10;99.90
46438;DHT22;32137;48.728;9.142;2023-05-08T05:53:12;15.20;99.90
46438;DHT22;32137;48.728;9.142;2023-05-08T05:55:37;15.20;99.90
46438;DHT22;32137;48.728;9.142;2023-05-08T05:58:03;15.50;99.90
46438;DHT22;32137;48.728;9.142;2023-05-08T06:00:29;15.20;99.90
46438;DHT22;32137;48.728;9.142;2023-05-08T06:02:55;15.30;99.90
46438;DHT22;32137;48.728;9.142;2023-05-08T06:05:22;15.20;99.90
46438;DHT22;32137;48.728;9.142;2023-05-08T06:07:48;15.30;99.90
46438;DHT22;32137;48.728;9.142;2023-05-08T06:10:14;15.30;99.90
46438;DHT22;32137;48.728;9.142;2023-05-08T06:12:39;15.90;99.90
46438;DHT22;32137;48.728;9.142;2023-05-08T06:15:06;15.80;99.90
46438;DHT22;32137;48.728;9.142;2023-05-08T06:17:32;15.50;99.90
46438;DHT22;32137;48.728;9.142;2023-05-08T06:19:57;15.90;99.90
46438;DHT22;32137;48.728;9.142;2023-05-08T06:22:23;15.60;99.90
46438;DHT22;32137;48.728;9.142;2023-05-08T06:24:50;15.50;99.90
46438;DHT22;32137;48.728;9.142;2023-05-08T06:27:19;15.70;99.90
46438;DHT22;32137;48.728;9.142;2023-05-08T06:29:46;16.00;99.90
46438;DHT22;32137;48.728;9.142;2023-05-08T06:32:12;15.90;99.90
46438;DHT22;32137;48.728;9.142;2023-05-08T06:34:38;15.90;99.90
46438;DHT22;32137;48.728;9.142;2023-05-08T06:37:03;15.40;99.90
46438;DHT22;32137;48.728;9.142;2023-05-08T06:39:29;15.40;99.90
46438;DHT22;32137;48.728;9.142;2023-05-08T06:41:54;15.90;99.90
46438;DHT22;32137;48.728;9.142;2023-05-08T06:44:20;15.90;99.90
46438;DHT22;32137;48.728;9.142;2023-05-08T06:46:46;15.40;99.90
46438;DHT22;32137;48.728;9.142;2023-05-08T06:49:11;15.60;99.90
46438;DHT22;32137;48.728;9.142;2023-05-08T06:51:37;15.30;99.90
46438;DHT22;32137;48.728;9.142;2023-05-08T06:54:03;15.80;99.90
46438;DHT22;32137;48.728;9.142;2023-05-08T06:56:33;15.50;99.90
46438;DHT22;32137;48.728;9.142;2023-05-08T06:58:59;15.90;99.90
46438;DHT22;32137;48.728;9.142;2023-05-08T07:01:25;15.60;99.90
46438;DHT22;32137;48.728;9.142;2023-05-08T07:03:50;16.00;99.90
46438;DHT22;32137;48.728;9.142;2023-05-08T07:06:16;15.90;99.90
46438;DHT22;32137;48.728;9.142;2023-05-08T07:08:41;16.00;99.90
46438;DHT22;32137;48.728;9.142;2023-05-08T07:11:07;15.40;99.90
46438;DHT22;32137;48.728;9.142;2023-05-08T07:13:37;15.40;99.90
46438;DHT22;32137;48.728;9.142;2023-05-08T07:16:08;16.10;99.90
46438;DHT22;32137;48.728;9.142;2023-05-08T07:18:33;16.10;99.90
46438;DHT22;32137;48.728;9.142;2023-05-08T07:20:59;15.70;99.90
46438;DHT22;32137;48.728;9.142;2023-05-08T07:23:24;16.20;99.90
46438;DHT22;32137;48.728;9.142;2023-05-08T07:25:51;16.00;99.90
46438;DHT22;32137;48.728;9.142;2023-05-08T07:28:17;15.80;99.90
46438;DHT22;32137;48.728;9.142;2023-05-08T07:30:43;16.10;99.90
46438;DHT22;32137;48.728;9.142;2023-05-08T07:33:08;16.20;99.90
46438;DHT22;32137;48.728;9.142;2023-05-08T07:35:34;15.80;99.90
46438;DHT22;32137;48.728;9.142;2023-05-08T07:38:02;16.40;99.90
46438;DHT22;32137;48.728;9.142;2023-05-08T07:40:27;16.50;99.90
46438;DHT22;32137;48.728;9.142;2023-05-08T07:42:53;16.10;99.90
46438;DHT22;32137;48.728;9.142;2023-05-08T07:45:18;16.60;99.90
46438;DHT22;32137;48.728;9.142;2023-05-08T07:47:47;16.10;99.90
46438;DHT22;32137;48.728;9.142;2023-05-08T07:50:13;16.80;99.90
46438;DHT22;32137;48.728;9.142;2023-05-08T07:52:38;16.20;99.90
46438;DHT22;32137;48.728;9.142;2023-05-08T07:55:04;16.70;99.90
46438;DHT22;32137;48.728;9.142;2023-05-08T07:57:40;16.80;99.90
46438;DHT22;32137;48.728;9.142;2023-05-08T08:00:07;16.40;99.90
46438;DHT22;32137;48.728;9.142;2023-05-08T08:02:33;16.60;99.90
46438;DHT22;32137;48.728;9.142;2023-05-08T08:04:59;16.00;99.90
46438;DHT22;32137;48.728;9.142;2023-05-08T08:07:24;16.00;99.90
46438;DHT22;32137;48.728;9.142;2023-05-08T08:09:50;15.90;99.90
46438;DHT22;32137;48.728;9.142;2023-05-08T08:12:15;15.90;99.90
46438;DHT22;32137;48.728;9.142;2023-05-08T08:14:41;16.20;99.90
46438;DHT22;32137;48.728;9.142;2023-05-08T08:17:07;15.90;99.90
46438;DHT22;32137;48.728;9.142;2023-05-08T08:19:32;16.10;99.90
46438;DHT22;32137;48.728;9.142;2023-05-08T08:21:58;16.20;99.90
46438;DHT22;32137;48.728;9.142;2023-05-08T08:24:25;15.80;99.90
46438;DHT22;32137;48.728;9.142;2023-05-08T08:26:50;16.00;99.90
46438;DHT22;32137;48.728;9.142;2023-05-08T08:29:16;16.10;99.90
46438;DHT22;32137;48.728;9.142;2023-05-08T08:31:42;15.80;99.90
46438;DHT22;32137;48.728;9.142;2023-05-08T08:34:07;15.90;99.90
46438;DHT22;32137;48.728;9.142;2023-05-08T08:36:33;15.50;99.90
46438;DHT22;32137;48.728;9.142;2023-05-08T08:38:59;15.70;99.90
46438;DHT22;32137;48.728;9.142;2023-05-08T08:41:24;15.60;99.90
46438;DHT22;32137;48.728;9.142;2023-05-08T08:43:53;16.10;99.90
46438;DHT22;32137;48.728;9.142;2023-05-08T08:46:22;15.60;99.90
46438;DHT22;32137;48.728;9.142;2023-05-08T08:48:49;15.50;99.90
46438;DHT22;32137;48.728;9.142;2023-05-08T08:51:27;16.00;99.90
46438;DHT22;32137;48.728;9.142;2023-05-08T08:54:04;15.80;99.90
46438;DHT22;32137;48.728;9.142;2023-05-08T08:56:33;16.00;99.90
46438;DHT22;32137;48.728;9.142;2023-05-08T08:59:00;15.50;99.90
46438;DHT22;32137;48.728;9.142;2023-05-08T09:01:27;15.60;99.90
46438;DHT22;32137;48.728;9.142;2023-05-08T09:03:56;16.00;99.90
46438;DHT22;32137;48.728;9.142;2023-05-08T09:06:23;15.50;99.90
46438;DHT22;32137;48.728;9.142;2023-05-08T09:08:49;15.60;99.90
46438;DHT22;32137;48.728;9.142;2023-05-08T09:11:15;15.50;99.90
46438;DHT22;32137;48.728;9.142;2023-05-08T09:13:41;16.10;99.90
46438;DHT22;32137;48.728;9.142;2023-05-08T09:16:06;15.70;99.90
46438;DHT22;32137;48.728;9.142;2023-05-08T09:18:32;15.50;99.90
46438;DHT22;32137;48.728;9.142;2023-05-08T09:20:57;16.10;99.90
46438;DHT22;32137;48.728;9.142;2023-05-08T09:23:25;16.10;99.90
46438;DHT22;32137;48.728;9.142;2023-05-08T09:25:51;15.80;99.90
46438;DHT22;32137;48.728;9.142;2023-05-08T09:28:24;16.10;99.90
46438;DHT22;32137;48.728;9.142;2023-05-08T09:30:51;15.50;99.90
46438;DHT22;32137;48.728;9.142;2023-05-08T09:33:17;15.60;99.90
46438;DHT22;32137;48.728;9.142;2023-05-08T09:35:43;16.20;99.90
46438;DHT22;32137;48.728;9.142;2023-05-08T09:41:15;15.70;99.90
46438;DHT22;32137;48.728;9.142;2023-05-08T09:43:42;15.90;99.90
46438;DHT22;32137;48.728;9.142;2023-05-08T09:46:23;16.20;99.90
46438;DHT22;32137;48.728;9.142;2023-05-08T09:48:50;16.40;99.90
46438;DHT22;32137;48.728;9.142;2023-05-08T09:51:16;16.00;99.90
46438;DHT22;32137;48.728;9.142;2023-05-08T09:53:43;16.00;99.90
46438;DHT22;32137;48.728;9.142;2023-05-08T09:56:08;16.00;99.90
46438;DHT22;32137;48.728;9.142;2023-05-08T09:58:41;16.60;99.90
46438;DHT22;32137;48.728;9.142;2023-05-08T10:01:08;16.20;99.90
46438;DHT22;32137;48.728;9.142;2023-05-08T10:03:51;16.20;99.90
46438;DHT22;32137;48.728;9.142;2023-05-08T10:06:16;16.80;99.90
46438;DHT22;32137;48.728;9.142;2023-05-08T10:08:42;16.80;99.90
46438;DHT22;32137;48.728;9.142;2023-05-08T10:11:15;17.00;99.90
46438;DHT22;32137;48.728;9.142;2023-05-08T10:13:42;16.80;99.90
46438;DHT22;32137;48.728;9.142;2023-05-08T10:16:14;17.00;99.90
46438;DHT22;32137;48.728;9.142;2023-05-08T10:18:49;16.80;99.90
46438;DHT22;32137;48.728;9.142;2023-05-08T10:21:16;17.00;99.90
46438;DHT22;32137;48.728;9.142;2023-05-08T10:23:42;17.10;99.90
46438;DHT22;32137;48.728;9.142;2023-05-08T10:26:12;17.30;99.90
46438;DHT22;32137;48.728;9.142;2023-05-08T10:31:11;17.20;99.90
46438;DHT22;32137;48.728;9.142;2023-05-08T10:33:39;17.10;99.90
46438;DHT22;32137;48.728;9.142;2023-05-08T10:36:06;16.90;99.90
46438;DHT22;32137;48.728;9.142;2023-05-08T10:38:34;16.70;99.90
46438;DHT22;32137;48.728;9.142;2023-05-08T10:41:00;17.00;99.90
46438;DHT22;32137;48.728;9.142;2023-05-08T10:43:28;17.00;99.90
46438;DHT22;32137;48.728;9.142;2023-05-08T10:45:55;16.90;99.90
46438;DHT22;32137;48.728;9.142;2023-05-08T10:48:32;16.70;99.90
46438;DHT22;32137;48.728;9.142;2023-05-08T10:51:11;17.00;99.90
46438;DHT22;32137;48.728;9.142;2023-05-08T10:53:51;16.80;99.90
46438;DHT22;32137;48.728;9.142;2023-05-08T10:56:25;17.10;99.90
46438;DHT22;32137;48.728;9.142;2023-05-08T10:58:58;16.90;99.90
46438;DHT22;32137;48.728;9.142;2023-05-08T11:01:24;17.20;99.90
46438;DHT22;32137;48.728;9.142;2023-05-08T11:03:50;17.10;99.90
46438;DHT22;32137;48.728;9.142;2023-05-08T11:06:17;17.10;99.90
46438;DHT22;32137;48.728;9.142;2023-05-08T11:09:02;17.40;99.90
46438;DHT22;32137;48.728;9.142;2023-05-08T11:11:28;17.30;99.90
46438;DHT22;32137;48.728;9.142;2023-05-08T11:14:09;17.60;99.90
46438;DHT22;32137;48.728;9.142;2023-05-08T11:19:21;17.70;99.90
46438;DHT22;32137;48.728;9.142;2023-05-08T11:24:48;17.80;99.90
46438;DHT22;32137;48.728;9.142;2023-05-08T11:27:14;17.80;99.90
46438;DHT22;32137;48.728;9.142;2023-05-08T11:29:40;17.70;99.90
46438;DHT22;32137;48.728;9.142;2023-05-08T11:32:06;17.70;99.90
46438;DHT22;32137;48.728;9.142;2023-05-08T11:37:19;17.90;99.90
46438;DHT22;32137;48.728;9.142;2023-05-08T11:39:46;17.90;99.90
46438;DHT22;32137;48.728;9.142;2023-05-08T11:45:06;18.30;99.90
46438;DHT22;32137;48.728;9.142;2023-05-08T11:47:40;18.80;99.90
46438;DHT22;32137;48.728;9.142;2023-05-08T11:50:10;18.80;99.90
46438;DHT22;32137;48.728;9.142;2023-05-08T11:52:38;19.00;99.90
46438;DHT22;32137;48.728;9.142;2023-05-08T11:55:05;19.00;99.90
46438;DHT22;32137;48.728;9.142;2023-05-08T11:57:32;19.10;99.90
46438;DHT22;32137;48.728;9.142;2023-05-08T12:00:07;19.00;99.90
46438;DHT22;32137;48.728;9.142;2023-05-08T12:02:40;19.00;99.90
46438;DHT22;32137;48.728;9.142;2023-05-08T12:05:07;18.80;99.90
46438;DHT22;32137;48.728;9.142;2023-05-08T12:07:41;18.80;99.90
46438;DHT22;32137;48.728;9.142;2023-05-08T12:10:08;18.90;99.90
46438;DHT22;32137;48.728;9.142;2023-05-08T12:12:42;19.30;99.90
46438;DHT22;32137;48.728;9.142;2023-05-08T12:15:09;20.00;99.90
46438;DHT22;32137;48.728;9.142;2023-05-08T12:17:35;19.90;99.90
46438;DHT22;32137;48.728;9.142;2023-05-08T12:20:17;19.30;99.90
46438;DHT22;32137;48.728;9.142;2023-05-08T12:22:50;19.00;99.90
46438;DHT22;32137;48.728;9.142;2023-05-08T12:25:17;19.00;99.90
46438;DHT22;32137;48.728;9.142;2023-05-08T12:27:43;18.90;99.90
46438;DHT22;32137;48.728;9.142;2023-05-08T12:30:11;20.10;99.90
46438;DHT22;32137;48.728;9.142;2023-05-08T12:32:39;20.60;99.90
46438;DHT22;32137;48.728;9.142;2023-05-08T12:35:06;21.30;99.90
46438;DHT22;32137;48.728;9.142;2023-05-08T12:37:32;23.00;99.90
46438;DHT22;32137;48.728;9.142;2023-05-08T12:39:58;25.80;99.90
46438;DHT22;32137;48.728;9.142;2023-05-08T12:42:44;28.50;99.90
46438;DHT22;32137;48.728;9.142;2023-05-08T12:45:23;29.60;82.60
46438;DHT22;32137;48.728;9.142;2023-05-08T12:47:49;28.00;99.90
46438;DHT22;32137;48.728;9.142;2023-05-08T12:50:16;29.40;90.50
46438;DHT22;32137;48.728;9.142;2023-05-08T12:52:42;31.60;7.60
46438;DHT22;32137;48.728;9.142;2023-05-08T12:55:26;30.90;1.00
46438;DHT22;32137;48.728;9.142;2023-05-08T12:58:06;32.40;1.00
46438;DHT22;32137;48.728;9.142;2023-05-08T13:00:43;34.90;1.00
46438;DHT22;32137;48.728;9.142;2023-05-08T13:03:25;36.10;1.00
46438;DHT22;32137;48.728;9.142;2023-05-08T13:05:52;35.00;1.00
46438;DHT22;32137;48.728;9.142;2023-05-08T13:08:18;33.30;1.00
46438;DHT22;32137;48.728;9.142;2023-05-08T13:10:54;30.90;1.00
46438;DHT22;32137;48.728;9.142;2023-05-08T13:13:24;30.70;1.00
46438;DHT22;32137;48.728;9.142;2023-05-08T13:15:52;29.50;1.00
46438;DHT22;32137;48.728;9.142;2023-05-08T13:18:18;28.00;1.00
46438;DHT22;32137;48.728;9.142;2023-05-08T13:20:44;27.90;1.00
46438;DHT22;32137;48.728;9.142;2023-05-08T13:23:11;28.20;1.00
46438;DHT22;32137;48.728;9.142;2023-05-08T13:25:37;28.60;1.00
46438;DHT22;32137;48.728;9.142;2023-05-08T13:28:04;27.50;1.00
46438;DHT22;32137;48.728;9.142;2023-05-08T13:30:30;28.40;1.00
46438;DHT22;32137;48.728;9.142;2023-05-08T13:32:56;28.00;1.00
46438;DHT22;32137;48.728;9.142;2023-05-08T13:35:22;26.80;1.00
46438;DHT22;32137;48.728;9.142;2023-05-08T13:37:48;26.00;1.00
46438;DHT22;32137;48.728;9.142;2023-05-08T13:40:14;25.50;1.00
46438;DHT22;32137;48.728;9.142;2023-05-08T13:42:40;25.70;1.00
46438;DHT22;32137;48.728;9.142;2023-05-08T13:45:06;25.70;1.00
46438;DHT22;32137;48.728;9.142;2023-05-08T13:47:33;25.80;1.00
46438;DHT22;32137;48.728;9.142;2023-05-08T13:49:59;26.70;1.00
46438;DHT22;32137;48.728;9.142;2023-05-08T13:52:24;26.20;1.00
46438;DHT22;32137;48.728;9.142;2023-05-08T13:54:51;26.60;1.00
46438;DHT22;32137;48.728;9.142;2023-05-08T13:57:16;26.50;1.00
46438;DHT22;32137;48.728;9.142;2023-05-08T13:59:42;25.60;1.00
46438;DHT22;32137;48.728;9.142;2023-05-08T14:02:07;24.90;1.00
46438;DHT22;32137;48.728;9.142;2023-05-08T14:04:36;24.40;11.60
46438;DHT22;32137;48.728;9.142;2023-05-08T14:07:02;23.90;45.40
46438;DHT22;32137;48.728;9.142;2023-05-08T14:09:32;23.40;23.30
46438;DHT22;32137;48.728;9.142;2023-05-08T14:12:13;23.10;38.40
46438;DHT22;32137;48.728;9.142;2023-05-08T14:14:40;22.80;88.60
46438;DHT22;32137;48.728;9.142;2023-05-08T14:17:06;22.70;92.00
46438;DHT22;32137;48.728;9.142;2023-05-08T14:19:32;22.50;99.90
46438;DHT22;32137;48.728;9.142;2023-05-08T14:21:58;22.30;99.90
46438;DHT22;32137;48.728;9.142;2023-05-08T14:24:24;22.10;99.90
46438;DHT22;32137;48.728;9.142;2023-05-08T14:26:50;22.00;99.90
46438;DHT22;32137;48.728;9.142;2023-05-08T14:29:16;21.70;99.90
46438;DHT22;32137;48.728;9.142;2023-05-08T14:31:43;21.60;99.90
46438;DHT22;32137;48.728;9.142;2023-05-08T14:34:09;21.40;99.90
46438;DHT22;32137;48.728;9.142;2023-05-08T14:36:34;21.30;99.90
46438;DHT22;32137;48.728;9.142;2023-05-08T14:39:00;21.20;99.90
46438;DHT22;32137;48.728;9.142;2023-05-08T14:41:29;21.00;99.90
46438;DHT22;32137;48.728;9.142;2023-05-08T14:43:56;20.90;99.90
46438;DHT22;32137;48.728;9.142;2023-05-08T14:46:21;20.80;99.90
46438;DHT22;32137;48.728;9.142;2023-05-08T14:48:48;20.70;99.90
46438;DHT22;32137;48.728;9.142;2023-05-08T14:51:13;20.70;99.90
46438;DHT22;32137;48.728;9.142;2023-05-08T14:53:39;20.60;99.90
46438;DHT22;32137;48.728;9.142;2023-05-08T14:56:05;20.50;99.90
46438;DHT22;32137;48.728;9.142;2023-05-08T14:58:31;20.40;99.90
46438;DHT22;32137;48.728;9.142;2023-05-08T15:00:57;20.30;99.90
46438;DHT22;32137;48.728;9.142;2023-05-08T15:03:22;20.10;99.90
46438;DHT22;32137;48.728;9.142;2023-05-08T15:05:48;20.00;1.00
46438;DHT22;32137;48.728;9.142;2023-05-08T15:08:14;20.00;1.00
46438;DHT22;32137;48.728;9.142;2023-05-08T15:10:39;19.90;1.00
46438;DHT22;32137;48.728;9.142;2023-05-08T15:13:05;19.80;27.80
46438;DHT22;32137;48.728;9.142;2023-05-08T15:15:31;19.80;1.00
46438;DHT22;32137;48.728;9.142;2023-05-08T15:17:56;19.70;1.00
46438;DHT22;32137;48.728;9.142;2023-05-08T15:20:22;19.70;22.50
46438;DHT22;32137;48.728;9.142;2023-05-08T15:22:47;19.60;1.00
46438;DHT22;32137;48.728;9.142;2023-05-08T15:25:13;19.60;1.00
46438;DHT22;32137;48.728;9.142;2023-05-08T15:27:38;19.60;1.00
46438;DHT22;32137;48.728;9.142;2023-05-08T15:30:06;19.60;38.50
46438;DHT22;32137;48.728;9.142;2023-05-08T15:32:32;19.60;19.00
46438;DHT22;32137;48.728;9.142;2023-05-08T15:34:58;19.60;99.90
46438;DHT22;32137;48.728;9.142;2023-05-08T15:37:24;19.60;52.40
46438;DHT22;32137;48.728;9.142;2023-05-08T15:39:49;19.60;99.90
46438;DHT22;32137;48.728;9.142;2023-05-08T15:42:15;19.70;99.90
46438;DHT22;32137;48.728;9.142;2023-05-08T15:44:40;19.60;75.30
46438;DHT22;32137;48.728;9.142;2023-05-08T15:47:06;19.60;94.60
46438;DHT22;32137;48.728;9.142;2023-05-08T15:49:32;19.50;93.10
46438;DHT22;32137;48.728;9.142;2023-05-08T15:51:57;19.60;99.90
46438;DHT22;32137;48.728;9.142;2023-05-08T15:54:23;19.60;99.90
46438;DHT22;32137;48.728;9.142;2023-05-08T15:56:48;19.50;98.60
46438;DHT22;32137;48.728;9.142;2023-05-08T15:59:14;19.50;99.90
46438;DHT22;32137;48.728;9.142;2023-05-08T16:01:39;19.50;95.10
46438;DHT22;32137;48.728;9.142;2023-05-08T16:04:09;19.50;99.90
46438;DHT22;32137;48.728;9.142;2023-05-08T16:06:35;19.50;84.50
46438;DHT22;32137;48.728;9.142;2023-05-08T16:09:00;19.50;76.00
46438;DHT22;32137;48.728;9.142;2023-05-08T16:11:29;19.40;16.80
46438;DHT22;32137;48.728;9.142;2023-05-08T16:13:56;19.40;27.00
46438;DHT22;32137;48.728;9.142;2023-05-08T16:16:23;19.50;26.60